ADDS METAR Data INFO
IDs: Format: Raw Decoded Include TAF

Data at: 1200 UTC 21 Jun 2018

KCJR 211155Z AUTO 00000KT 10SM BKN090 BKN120 23/21 A2979 RMK AO2 70096 T02280209 10228 20204
KCJR 211135Z AUTO 00000KT 10SM CLR 22/21 A2979 RMK AO2 T02210210
KCJR 211115Z AUTO 00000KT 10SM SCT002 22/21 A2978 RMK AO2 T02200210
KCJR 211055Z AUTO 00000KT 7SM CLR 22/21 A2977 RMK AO2 T02150206
KCJR 211035Z AUTO 00000KT 5SM BR SCT120 21/20 A2977 RMK AO2 T02110202
KCJR 211015Z AUTO 00000KT 5SM BR BKN120 21/20 A2976 RMK AO2 T02050197
KCJR 210955Z AUTO 00000KT 4SM BR BKN110 20/20 A2976 RMK AO2 T02040195
KCJR 210935Z AUTO 00000KT 7SM SCT002 SCT095 BKN110 21/20 A2975 RMK AO2 T02060198
KCJR 210915Z AUTO 00000KT 7SM SCT095 BKN110 21/20 A2975 RMK AO2 T02060197
KCJR 210855Z AUTO 00000KT 5SM BR BKN095 BKN120 21/20 A2975 RMK AO2 T02060198
KCJR 210835Z AUTO 00000KT 7SM SCT095 BKN120 21/20 A2975 RMK AO2 T02090200
KCJR 210815Z AUTO 00000KT 7SM SCT100 BKN120 21/20 A2975 RMK AO2 T02100200
KCJR 210755Z AUTO 00000KT 7SM SCT095 21/20 A2975 RMK AO2 T02110200
KCJR 210735Z AUTO 00000KT 10SM CLR 22/20 A2976 RMK AO2 T02150203
KCJR 210715Z AUTO 00000KT 10SM SCT120 22/20 A2975 RMK AO2 T02150203
KCJR 210655Z AUTO 00000KT 10SM SCT110 22/20 A2976 RMK AO2 T02150203
KCJR 210635Z AUTO 00000KT 10SM SCT100 SCT120 22/21 A2976 RMK AO2 T02150205
KCJR 210615Z AUTO 00000KT 10SM SCT100 SCT120 22/21 A2978 RMK AO2 LTG DSNT S T02150205
KCJR 210555Z AUTO 00000KT 10SM SCT100 SCT120 21/20 A2979 RMK AO2 60033 T02140204 10228 20214
KCJR 210535Z AUTO 00000KT 10SM CLR 22/21 A2981 RMK AO2 T02150205
KCJR 210515Z AUTO 00000KT 10SM CLR 22/21 A2981 RMK AO2 T02150205
KCJR 210455Z AUTO 00000KT 10SM SCT090 22/21 A2982 RMK AO2 LTG DSNT SW T02160207 402980216
KCJR 210435Z AUTO 00000KT 10SM SCT090 22/21 A2983 RMK AO2 T02160208
KCJR 210415Z AUTO 21003KT 10SM SCT090 22/21 A2983 RMK AO2 LTG DSNT SW T02170208
KCJR 210355Z AUTO 00000KT 10SM CLR 22/21 A2982 RMK AO2 LTG DSNT SW T02180210
KCJR 210335Z AUTO 00000KT 10SM SCT004 22/21 A2982 RMK AO2 LTG DSNT W T02200211
KCJR 210315Z AUTO 23003KT 10SM OVC004 22/21 A2982 RMK AO2 T02200211
KCJR 210255Z AUTO 22003KT 10SM BKN004 BKN070 BKN080 22/21 A2983 RMK AO2 P0001 60033 T02210212
KCJR 210235Z AUTO 00000KT 10SM VCTS SCT080 22/21 A2983 RMK AO2 T02210212
KCJR 210215Z AUTO 00000KT 10SM -DZ SCT110 22/21 A2984 RMK AO2 LTG DSNT S T02200212
KCJR 210155Z AUTO 20003KT 10SM -RA SCT110 22/21 A2983 RMK AO2 LTG DSNT S P0003 T02210212
KCJR 210135Z AUTO 00000KT 10SM -VCTSRA SCT110 22/21 A2982 RMK AO2 LTG DSNT E THRU SW P0003 T02200211
KCJR 210115Z AUTO 00000KT 7SM -VCTSRA OVC100 22/21 A2982 RMK AO2 LTG DSNT SE THRU SW P0002 T02200211
KCJR 210055Z AUTO 00000KT 10SM TSRA BKN110 22/21 A2985 RMK AO2 LTG DSNT S THRU NW P0029 T02210210
KCJR 210035Z AUTO 00000KT 10SM -VCTSRA SCT080 BKN110 22/21 A2984 RMK AO2 LTG DSNT SW THRU NW P0029 T02210211
KCJR 210015Z AUTO 05004KT 2SM TSRA BKN018 BKN038 OVC070 22/21 A2985 RMK AO2 LTG DSNT ALQS P0028 T02240213
KCJR 202355Z AUTO 34005G19KT 2SM +VCTSRA BKN015 OVC027 23/21 A2986 RMK AO2 LTG DSNT SW THRU NE P0017 60062 T02290213 10289 20229
KCJR 202335Z AUTO 36006KT 10SM TS SCT015 SCT031 BKN045 25/22 A2985 RMK AO2 LTG DSNT W THRU NE T02450223
KCJR 202315Z AUTO 00000KT 10SM CLR 25/22 A2981 RMK AO2 LTG DSNT ALQS T02480223
KCJR 202255Z AUTO 00000KT 10SM CLR 25/22 A2979 RMK AO2 LTG DSNT N SE AND NW T02520217
KCJR 202235Z AUTO 00000KT 10SM CLR 25/22 A2978 RMK AO2 LTG DSNT ALQS T02520217
KCJR 202215Z AUTO 23003KT 10SM SCT006 25/22 A2979 RMK AO2 LTG DSNT ALQS T02500221
KCJR 202155Z AUTO 22004KT 10SM BKN006 25/22 A2980 RMK AO2 LTG DSNT S AND NW P0001 T02460223
KCJR 202135Z AUTO 18003KT 7SM -DZ SCT004 SCT023 SCT055 24/23 A2981 RMK AO2 LTG DSNT N P0001 T02370228
KCJR 202115Z AUTO 00000KT 5SM -RA SCT009 SCT023 SCT055 23/22 A2981 RMK AO2 LTG DSNT S THRU N P0001 T02320223
KCJR 202055Z AUTO 00000KT 5SM TSRA SCT008 SCT028 BKN050 23/22 A2983 RMK AO2 LTG DSNT ALQS P0014 60044 T02340224
KCJR 202035Z AUTO 00000KT 10SM +TSRA OVC008 24/23 A2986 RMK AO2 LTG DSNT SE THRU W P0001 T02370226
KCJR 202015Z AUTO 34003KT 7SM TSRA SCT008 BKN046 OVC120 24/23 A2985 RMK AO2 LTG DSNT ALQS T02390228
KCJR 201955Z AUTO 00000KT 7SM -TSRA SCT033 SCT055 BKN120 24/23 A2983 RMK AO2 LTG DSNT ALQS P0003 T02400227
KCJR 201935Z AUTO 24004KT 10SM -TSRA SCT100 BKN120 24/23 A2983 RMK AO2 LTG DSNT ALQS P0002 T02370225
KCJR 201915Z AUTO 29003KT 5SM -RA SCT050 SCT070 BKN100 24/23 A2983 RMK AO2 LTG DSNT SW THRU N P0001 T02400227
KCJR 201855Z AUTO 00000KT 2SM +VCTSRA SCT030 BKN048 OVC070 24/22 A2983 RMK AO2 LTG DSNT W P0027 T02380223
KCJR 201835Z AUTO 00000KT 2SM +RA SCT022 BKN050 OVC065 25/22 A2986 RMK AO2 VIS 3/4V5 LTG DSNT SW AND W P0013 T02470215
KCJR 201815Z AUTO 00000KT 10SM SCT055 BKN075 OVC090 29/20 A2985 RMK AO2 LTG DSNT SW AND NW T02860201
KCJR 201755Z AUTO 00000KT 10SM SCT060 SCT065 BKN090 29/20 A2986 RMK AO2 LTG DSNT NW T02850195 10298 20230
KCJR 201735Z AUTO 00000KT 10SM SCT065 SCT085 BKN110 29/20 A2986 RMK AO2 T02930202
KCJR 201715Z AUTO 00000KT 10SM SCT031 BKN065 OVC110 29/20 A2986 RMK AO2 T02890198
KCJR 201655Z AUTO 22003KT 10SM -RA SCT050 BKN065 OVC100 29/20 A2987 RMK AO2 T02870199
KCJR 201635Z AUTO 00000KT 10SM SCT027 BKN065 OVC075 29/18 A2988 RMK AO2 T02850184
KCJR 201615Z AUTO 00000KT 10SM -RA SCT027 SCT033 BKN100 28/18 A2989 RMK AO2 T02810175
KCJR 201555Z AUTO 23003KT 10SM SCT100 28/17 A2990 RMK AO2 T02830174
KCJR 201535Z AUTO 00000KT 10SM SCT055 28/17 A2990 RMK AO2 T02760165
KCJR 201515Z AUTO 00000KT 10SM CLR 27/17 A2990 RMK AO2 T02730171
KCJR 201455Z AUTO 00000KT 10SM CLR 27/16 A2990 RMK AO2 T02710164
KCJR 201435Z AUTO 00000KT 10SM CLR 27/18 A2990 RMK AO2 T02710178
KCJR 201415Z AUTO 00000KT 10SM SCT038 SCT075 27/18 A2990 RMK AO2 T02660175
KCJR 201355Z AUTO 00000KT 10SM BKN031 BKN075 27/18 A2990 RMK AO2 T02690175
KCJR 201335Z AUTO 00000KT 10SM OVC031 26/17 A2991 RMK AO2 T02600167
KCJR 201315Z AUTO 00000KT 10SM OVC031 25/17 A2991 RMK AO2 T02530174
KCJR 201255Z AUTO 00000KT 10SM OVC029 26/17 A2991 RMK AO2 T02560171
KCJR 201235Z AUTO 00000KT 10SM BKN029 OVC070 25/18 A2991 RMK AO2 T02510176
KCJR 201215Z AUTO 00000KT 10SM SCT070 25/19 A2991 RMK AO2 T02460188
KCJR 201155Z AUTO 00000KT 7SM SCT035 SCT047 23/22 A2991 RMK AO2 70071 T02280215 10232 20221
KCJR 201135Z AUTO 00000KT 10SM BKN034 BKN043 BKN070 23/21 A2991 RMK AO2 T02280210
KCJR 201115Z AUTO 00000KT 10SM SCT041 SCT070 23/21 A2991 RMK AO2 T02260210
KCJR 201055Z AUTO 00000KT 10SM CLR 23/22 A2991 RMK AO2 T02280220
KCJR 201035Z AUTO 00000KT 7SM SCT060 23/22 A2991 RMK AO2 T02300221
KCJR 201015Z AUTO 00000KT 4SM BR SCT034 SCT046 OVC060 23/22 A2990 RMK AO2 T02300221
KCJR 200955Z AUTO 00000KT 2 1/2SM BR SCT034 BKN048 OVC060 23/22 A2990 RMK AO2 T02280220
KCJR 200935Z AUTO 00000KT 5SM BR SCT036 SCT050 OVC055 23/22 A2990 RMK AO2 T02270219
KCJR 200915Z AUTO 00000KT 1 3/4SM BR SCT040 OVC055 23/22 A2989 RMK AO2 T02270219
KCJR 200855Z AUTO 00000KT 4SM BR SCT040 BKN055 23/22 A2989 RMK AO2 T02300221
KCJR 200835Z AUTO 00000KT 2 1/2SM BR SCT047 BKN055 23/22 A2989 RMK AO2 VIS 1 1/2V5 T02300222
KCJR 200815Z AUTO 00000KT 3SM BR SCT045 OVC055 23/22 A2989 RMK AO2 T02310223
KCJR 200755Z AUTO 00000KT 4SM BR BKN045 OVC055 23/22 A2990 RMK AO2 T02300221
KCJR 200735Z AUTO 00000KT 3SM BR BKN045 OVC060 23/22 A2989 RMK AO2 T02280220
KCJR 200715Z AUTO 00000KT 2SM BR BKN048 OVC060 23/22 A2989 RMK AO2 T02270219
KCJR 200655Z AUTO 00000KT 3SM BR SCT002 BKN046 OVC050 23/22 A2989 RMK AO2 T02270220
KCJR 200635Z AUTO 00000KT 5SM BR BKN002 OVC048 23/22 A2989 RMK AO2 T02260217
KCJR 200615Z AUTO 00000KT 5SM BR SCT002 BKN048 23/22 A2989 RMK AO2 T02280220
KCJR 200555Z AUTO 00000KT 3/4SM BR BKN002 BKN050 22/21 A2989 RMK AO2 T02210212 10249 20221
KCJR 200535Z AUTO 00000KT 3/4SM BR BKN002 23/22 A2989 RMK AO2 T02270219
KCJR 200515Z AUTO 00000KT 5SM BR CLR 23/22 A2990 RMK AO2 T02290220
KCJR 200455Z AUTO 00000KT 1 3/4SM BR VV007 23/22 A2990 RMK AO2 VIS 1/2V5 T02310222 403510209
KCJR 200435Z AUTO 00000KT 10SM BKN070 24/23 A2990 RMK AO2 T02380228
KCJR 200415Z AUTO 00000KT 10SM SCT050 OVC060 24/23 A2991 RMK AO2 T02410230
KCJR 200355Z AUTO 00000KT 10SM OVC060 24/23 A2991 RMK AO2 T02400231
KCJR 200335Z AUTO 00000KT 7SM BKN060 BKN070 24/23 A2991 RMK AO2 T02370228
KCJR 200315Z AUTO 00000KT 5SM BR SCT060 BKN070 24/23 A2991 RMK AO2 T02360228
KCJR 200255Z AUTO 00000KT 7SM OVC065 24/23 A2991 RMK AO2 T02370228
KCJR 200235Z AUTO 00000KT 7SM OVC060 24/23 A2991 RMK AO2 T02370228
KCJR 200215Z AUTO 00000KT 10SM OVC050 24/23 A2992 RMK AO2 T02400231
KCJR 200155Z AUTO 00000KT 5SM BR OVC050 24/23 A2991 RMK AO2 T02350225
KCJR 200135Z AUTO 00000KT 7SM BKN048 BKN060 23/23 A2991 RMK AO2 T02340225
KCJR 200115Z AUTO 00000KT 10SM BKN050 BKN060 24/23 A2991 RMK AO2 T02360225
KCJR 200055Z AUTO 00000KT 10SM BKN050 24/23 A2990 RMK AO2 T02370226
KCJR 200035Z AUTO 00000KT 10SM BKN050 24/23 A2991 RMK AO2 T02390228
KCJR 200015Z AUTO 00000KT 10SM CLR 24/23 A2990 RMK AO2 T02400227